createdAt,value
2019-01-18T00:00:54.178Z,2.58
2019-01-18T00:02:00.950Z,2.55
2019-01-18T00:03:10.002Z,2.62
2019-01-18T00:04:16.722Z,2.22
2019-01-18T00:05:23.449Z,3.33
2019-01-18T00:06:30.398Z,2.62
2019-01-18T00:07:37.875Z,2.45
2019-01-18T00:08:44.601Z,2.42
2019-01-18T00:09:51.275Z,2.33
2019-01-18T00:10:58.264Z,2.40
2019-01-18T00:12:05.237Z,2.70
2019-01-18T00:13:11.943Z,2.98
2019-01-18T00:14:18.654Z,2.60
2019-01-18T00:15:25.669Z,2.70
2019-01-18T00:16:32.373Z,2.30
2019-01-18T00:17:40.065Z,2.83
2019-01-18T00:18:46.907Z,2.80
2019-01-18T00:19:53.964Z,2.20
2019-01-18T00:21:00.667Z,3.55
2019-01-18T00:22:08.157Z,2.37
2019-01-18T00:23:14.926Z,2.87
2019-01-18T00:24:21.579Z,1.90
2019-01-18T00:25:28.439Z,1.98
2019-01-18T00:26:35.937Z,2.17
2019-01-18T00:27:42.632Z,2.77
2019-01-18T00:28:49.670Z,3.00
2019-01-18T00:29:56.674Z,2.52
2019-01-18T00:31:03.721Z,3.10
2019-01-18T00:32:10.984Z,3.00
2019-01-18T00:33:17.830Z,2.87
2019-01-18T00:34:24.496Z,2.83
2019-01-18T00:35:31.521Z,3.60
2019-01-18T00:36:38.360Z,2.90
2019-01-18T00:37:45.482Z,3.00
2019-01-18T00:38:52.458Z,2.35
2019-01-18T00:39:59.834Z,3.30
2019-01-18T00:41:07.069Z,2.85
2019-01-18T00:42:13.967Z,2.70
2019-01-18T00:43:20.758Z,2.90
2019-01-18T00:44:27.427Z,2.37
2019-01-18T00:45:34.151Z,2.60
2019-01-18T00:46:41.229Z,2.98
2019-01-18T00:47:48.037Z,3.27
2019-01-18T00:48:54.717Z,2.60
2019-01-18T00:50:01.459Z,2.45
2019-01-18T00:51:08.158Z,2.15
2019-01-18T00:52:16.985Z,2.30
2019-01-18T00:53:24.122Z,3.05
2019-01-18T00:54:30.785Z,2.65
2019-01-18T00:55:37.476Z,2.20
2019-01-18T00:56:44.255Z,2.02
2019-01-18T00:57:51.103Z,2.35
2019-01-18T00:58:57.789Z,2.02
2019-01-18T01:00:06.682Z,2.33
2019-01-18T01:01:13.361Z,2.17
2019-01-18T01:02:20.138Z,2.35
2019-01-18T01:03:26.855Z,2.47
2019-01-18T01:04:33.621Z,1.90
2019-01-18T01:05:40.295Z,2.30
2019-01-18T01:06:47.045Z,2.40
2019-01-18T01:07:54.228Z,2.33
2019-01-18T01:09:00.942Z,2.25
2019-01-18T01:10:09.957Z,2.30
2019-01-18T01:11:16.660Z,3.30
2019-01-18T01:12:23.666Z,2.00
2019-01-18T01:13:30.707Z,2.47
2019-01-18T01:14:37.388Z,2.12
2019-01-18T01:15:44.262Z,2.15
2019-01-18T01:16:51.487Z,3.00
2019-01-18T01:17:58.512Z,3.33
2019-01-18T01:19:05.167Z,3.15
2019-01-18T01:20:14.163Z,2.20
2019-01-18T01:21:21.077Z,2.60
2019-01-18T01:22:28.395Z,2.50
2019-01-18T01:23:35.393Z,2.65
2019-01-18T01:24:42.098Z,2.20
2019-01-18T01:25:49.095Z,2.50
2019-01-18T01:26:55.868Z,1.92
2019-01-18T01:28:02.528Z,3.08
2019-01-18T01:29:09.191Z,2.05
2019-01-18T01:30:23.259Z,2.10
2019-01-18T01:31:30.345Z,2.02
2019-01-18T01:32:37.016Z,2.77
2019-01-18T01:33:43.722Z,2.77
2019-01-18T01:34:50.389Z,2.00
2019-01-18T01:35:57.095Z,2.37
2019-01-18T01:37:04.300Z,1.55
2019-01-18T01:38:11.732Z,2.17
2019-01-18T01:39:18.542Z,2.00
2019-01-18T01:40:28.414Z,2.47
2019-01-18T01:41:35.476Z,2.00
2019-01-18T01:42:42.782Z,1.77
2019-01-18T01:43:49.848Z,2.12
2019-01-18T01:44:56.567Z,1.70
2019-01-18T01:46:03.271Z,1.80
2019-01-18T01:47:09.956Z,2.02
2019-01-18T01:48:16.929Z,2.05
2019-01-18T01:49:23.594Z,2.08
2019-01-18T01:50:30.427Z,2.35
2019-01-18T01:51:38.019Z,2.15
2019-01-18T01:52:44.673Z,2.45
2019-01-18T01:53:51.745Z,2.00
2019-01-18T01:54:58.780Z,1.95
2019-01-18T01:56:05.702Z,2.62
2019-01-18T01:57:12.407Z,2.15
2019-01-18T01:58:19.401Z,2.10
2019-01-18T01:59:26.375Z,2.50
2019-01-18T02:00:33.566Z,2.50
2019-01-18T02:01:41.012Z,2.08
2019-01-18T02:02:48.083Z,2.42
2019-01-18T02:03:54.946Z,1.57
2019-01-18T02:05:02.282Z,2.22
2019-01-18T02:06:09.364Z,1.87
2019-01-18T02:07:16.455Z,1.98
2019-01-18T02:08:23.406Z,2.52
2019-01-18T02:09:30.472Z,2.30
2019-01-18T02:10:37.225Z,2.02
2019-01-18T02:11:43.917Z,1.72
2019-01-18T02:12:51.525Z,2.30
2019-01-18T02:13:58.244Z,2.75
2019-01-18T02:15:06.013Z,2.12
2019-01-18T02:16:12.925Z,2.40
2019-01-18T02:17:19.930Z,2.08
2019-01-18T02:18:26.599Z,2.52
2019-01-18T02:19:33.285Z,2.22
2019-01-18T02:20:40.584Z,2.20
2019-01-18T02:21:47.384Z,2.20
2019-01-18T02:22:54.867Z,2.02
2019-01-18T02:24:01.504Z,2.27
2019-01-18T02:25:09.058Z,2.20
2019-01-18T02:26:15.721Z,2.90
2019-01-18T02:27:22.433Z,2.50
2019-01-18T02:28:29.836Z,2.02
2019-01-18T02:29:36.534Z,2.10
2019-01-18T02:30:43.186Z,2.47
2019-01-18T02:31:49.868Z,2.55
2019-01-18T02:32:56.693Z,3.00
2019-01-18T02:34:03.347Z,2.47
2019-01-18T02:35:10.625Z,3.62
2019-01-18T02:36:17.363Z,1.85
2019-01-18T02:37:24.039Z,2.08
2019-01-18T02:38:30.708Z,2.90
2019-01-18T02:39:37.426Z,2.20
2019-01-18T02:40:44.178Z,2.62
2019-01-18T02:41:51.250Z,2.12
2019-01-18T02:42:57.960Z,2.87
2019-01-18T02:44:04.680Z,2.77
2019-01-18T02:45:13.970Z,2.47
2019-01-18T02:46:20.643Z,1.98
2019-01-18T02:47:27.802Z,2.45
2019-01-18T02:48:34.870Z,2.37
2019-01-18T02:49:41.859Z,2.50
2019-01-18T02:50:48.540Z,2.35
2019-01-18T02:51:55.578Z,2.70
2019-01-18T02:53:02.542Z,2.62
2019-01-18T02:54:09.642Z,2.35
2019-01-18T02:55:16.927Z,2.45
2019-01-18T02:56:23.664Z,2.50
2019-01-18T02:57:30.336Z,3.00
2019-01-18T02:58:37.311Z,2.35
2019-01-18T02:59:43.976Z,2.40
2019-01-18T03:00:50.956Z,2.10
2019-01-18T03:01:57.994Z,2.37
2019-01-18T03:03:04.654Z,2.60
2019-01-18T03:04:11.692Z,2.15
2019-01-18T03:05:21.121Z,2.98
2019-01-18T03:06:28.303Z,2.47
2019-01-18T03:07:35.400Z,3.35
2019-01-18T03:08:42.252Z,3.30
2019-01-18T03:09:48.967Z,2.90
2019-01-18T03:10:56.036Z,3.05
2019-01-18T03:12:02.971Z,2.80
2019-01-18T03:13:09.708Z,2.25
2019-01-18T03:14:16.745Z,2.95
2019-01-18T03:15:23.518Z,3.17
2019-01-18T03:16:30.230Z,2.40
2019-01-18T03:17:37.209Z,2.20
2019-01-18T03:18:44.059Z,2.40
2019-01-18T03:19:50.748Z,2.70
2019-01-18T03:20:58.382Z,2.45
2019-01-18T03:22:05.217Z,1.92
2019-01-18T03:23:11.927Z,2.30
2019-01-18T03:24:18.663Z,2.67
2019-01-18T03:25:30.210Z,2.25
2019-01-18T03:26:36.958Z,2.02
2019-01-18T03:27:44.054Z,2.45
2019-01-18T03:28:50.773Z,2.45
2019-01-18T03:29:57.755Z,2.30
2019-01-18T03:31:04.453Z,2.92
2019-01-18T03:32:11.238Z,2.37
2019-01-18T03:33:18.480Z,1.90
2019-01-18T03:34:25.134Z,2.22
2019-01-18T03:35:32.121Z,1.90
2019-01-18T03:36:38.844Z,2.47
2019-01-18T03:37:45.518Z,2.90
2019-01-18T03:38:52.391Z,2.30
2019-01-18T03:39:59.107Z,2.95
2019-01-18T03:41:05.950Z,2.42
2019-01-18T03:42:12.863Z,2.20
2019-01-18T03:43:19.588Z,2.40
2019-01-18T03:44:26.348Z,2.35
2019-01-18T03:45:33.669Z,2.22
2019-01-18T03:46:40.332Z,2.55
2019-01-18T03:47:47.327Z,2.00
2019-01-18T03:48:54.030Z,2.20
2019-01-18T03:50:01.107Z,2.40
2019-01-18T03:51:07.757Z,2.35
2019-01-18T03:52:14.532Z,2.40
2019-01-18T03:53:21.625Z,2.65
2019-01-18T03:54:28.689Z,2.60
2019-01-18T03:55:35.398Z,2.10
2019-01-18T03:56:42.729Z,2.45
2019-01-18T03:57:49.927Z,2.35
2019-01-18T03:58:56.614Z,2.45
2019-01-18T04:00:03.453Z,2.37
2019-01-18T04:01:10.136Z,2.30
2019-01-18T04:02:17.173Z,2.80
2019-01-18T04:03:24.232Z,3.37
2019-01-18T04:04:31.238Z,3.17
2019-01-18T04:05:37.928Z,3.42
2019-01-18T04:06:44.660Z,3.08
2019-01-18T04:07:51.474Z,3.25
2019-01-18T04:08:58.230Z,2.90
2019-01-18T04:10:06.515Z,3.12
2019-01-18T04:11:13.728Z,2.60
2019-01-18T04:12:21.024Z,2.40
2019-01-18T04:13:27.674Z,2.58
2019-01-18T04:14:34.767Z,2.45
2019-01-18T04:15:41.852Z,3.40
2019-01-18T04:16:49.015Z,2.67
2019-01-18T04:17:56.047Z,2.90
2019-01-18T04:19:03.070Z,2.50
2019-01-18T04:20:12.044Z,2.80
2019-01-18T04:21:19.030Z,2.60
2019-01-18T04:22:26.075Z,3.85
2019-01-18T04:23:33.106Z,2.83
2019-01-18T04:24:39.817Z,2.87
2019-01-18T04:25:46.766Z,2.62
2019-01-18T04:26:53.756Z,2.72
2019-01-18T04:28:00.596Z,2.37
2019-01-18T04:29:08.006Z,3.02
2019-01-18T04:30:17.574Z,4.17
2019-01-18T04:31:24.444Z,3.33
2019-01-18T04:32:31.139Z,4.05
2019-01-18T04:33:38.223Z,2.72
2019-01-18T04:34:45.275Z,3.05
2019-01-18T04:35:52.295Z,3.05
2019-01-18T04:36:59.386Z,2.72
2019-01-18T04:38:06.095Z,3.02
2019-01-18T04:39:12.752Z,2.35
2019-01-18T04:40:22.806Z,3.20
2019-01-18T04:41:29.617Z,2.77
2019-01-18T04:42:37.021Z,2.98
2019-01-18T04:43:44.496Z,2.98
2019-01-18T04:44:51.578Z,2.55
2019-01-18T04:45:58.257Z,2.45
2019-01-18T04:47:05.581Z,2.58
2019-01-18T04:48:12.312Z,2.45
2019-01-18T04:49:19.030Z,2.25
2019-01-18T04:50:28.879Z,3.58
2019-01-18T04:51:35.904Z,3.27
2019-01-18T04:52:42.602Z,2.50
2019-01-18T04:53:49.638Z,2.50
2019-01-18T04:54:56.724Z,2.60
2019-01-18T04:56:03.542Z,2.50
2019-01-18T04:57:10.366Z,2.42
2019-01-18T04:58:17.413Z,3.22
2019-01-18T04:59:24.113Z,3.02
2019-01-18T05:00:32.441Z,2.90
2019-01-18T05:01:39.125Z,1.90
2019-01-18T05:02:45.871Z,2.55
2019-01-18T05:03:52.556Z,2.65
2019-01-18T05:04:59.267Z,2.37
2019-01-18T05:06:06.120Z,2.80
2019-01-18T05:07:13.108Z,2.17
2019-01-18T05:08:20.122Z,2.17
2019-01-18T05:09:26.935Z,3.00
2019-01-18T05:10:33.612Z,3.15
2019-01-18T05:11:40.409Z,2.10
2019-01-18T05:12:47.610Z,2.37
2019-01-18T05:13:55.081Z,2.90
2019-01-18T05:15:02.068Z,2.47
2019-01-18T05:16:09.954Z,2.60
2019-01-18T05:17:16.741Z,2.52
2019-01-18T05:18:23.482Z,2.55
2019-01-18T05:19:30.303Z,2.15
2019-01-18T05:20:37.045Z,1.70
2019-01-18T05:21:43.749Z,2.42
2019-01-18T05:22:50.438Z,2.22
2019-01-18T05:23:57.149Z,2.37
2019-01-18T05:25:04.239Z,1.72
2019-01-18T05:26:11.223Z,1.90
2019-01-18T05:27:18.297Z,2.00
2019-01-18T05:28:25.020Z,1.57
2019-01-18T05:29:31.695Z,2.10
2019-01-18T05:30:38.426Z,1.92
2019-01-18T05:31:45.162Z,2.08
2019-01-18T05:32:52.029Z,2.15
2019-01-18T05:33:59.388Z,2.33
2019-01-18T05:35:07.964Z,2.10
2019-01-18T05:36:14.718Z,2.90
2019-01-18T05:37:21.937Z,3.42
2019-01-18T05:38:28.556Z,3.10
2019-01-18T05:39:35.682Z,1.95
2019-01-18T05:40:42.585Z,2.17
2019-01-18T05:41:49.589Z,1.75
2019-01-18T05:42:56.563Z,2.40
2019-01-18T05:44:03.277Z,2.65
2019-01-18T05:45:12.051Z,2.25
2019-01-18T05:46:18.950Z,2.33
2019-01-18T05:47:25.655Z,3.45
2019-01-18T05:48:32.368Z,2.58
2019-01-18T05:49:39.709Z,2.75
2019-01-18T05:50:46.399Z,2.87
2019-01-18T05:51:53.105Z,2.87
2019-01-18T05:53:04.097Z,2.40
2019-01-18T05:54:10.793Z,2.42
2019-01-18T05:55:17.927Z,2.85
2019-01-18T05:56:25.006Z,3.05
2019-01-18T05:57:31.719Z,2.25
2019-01-18T05:58:38.363Z,2.80
2019-01-18T05:59:45.382Z,3.10
2019-01-18T06:01:04.891Z,3.95
2019-01-18T06:02:11.949Z,2.60
2019-01-18T06:03:19.273Z,3.80
2019-01-18T06:04:25.936Z,1.70
2019-01-18T06:05:34.534Z,2.50
2019-01-18T06:06:41.280Z,2.40
2019-01-18T06:07:48.369Z,2.37
2019-01-18T06:08:55.479Z,2.15
2019-01-18T06:10:02.189Z,2.80
2019-01-18T06:11:08.903Z,2.77
2019-01-18T06:12:15.990Z,2.12
2019-01-18T06:13:23.319Z,3.52
2019-01-18T06:14:30.341Z,2.77
2019-01-18T06:15:37.183Z,3.15
2019-01-18T06:16:43.920Z,3.85
2019-01-18T06:17:50.646Z,3.08
2019-01-18T06:18:57.343Z,2.47
2019-01-18T06:20:04.810Z,2.85
2019-01-18T06:21:11.528Z,2.72
2019-01-18T06:22:18.432Z,3.80
2019-01-18T06:23:25.166Z,2.27
2019-01-18T06:24:31.909Z,3.30
2019-01-18T06:25:39.099Z,3.15
2019-01-18T06:26:45.811Z,2.92
2019-01-18T06:27:52.880Z,3.55
2019-01-18T06:28:59.902Z,3.50
2019-01-18T06:30:11.992Z,3.35
2019-01-18T06:31:19.075Z,3.65
2019-01-18T06:32:26.027Z,2.98
2019-01-18T06:33:32.775Z,3.65
2019-01-18T06:34:39.783Z,3.17
2019-01-18T06:35:46.458Z,2.72
2019-01-18T06:36:53.233Z,2.80
2019-01-18T06:38:00.223Z,2.12
2019-01-18T06:39:09.625Z,2.95
2019-01-18T06:40:17.348Z,2.75
2019-01-18T06:41:36.780Z,2.62
2019-01-18T06:42:43.580Z,4.12
2019-01-18T06:43:50.601Z,3.15
2019-01-18T06:44:57.269Z,2.90
2019-01-18T06:46:04.479Z,4.17
2019-01-18T06:47:11.477Z,3.25
2019-01-18T06:48:21.495Z,3.83
2019-01-18T06:49:28.210Z,3.37
2019-01-18T06:50:35.236Z,4.80
2019-01-18T06:51:41.947Z,3.70
2019-01-18T06:52:48.862Z,3.12
2019-01-18T06:53:55.610Z,3.60
2019-01-18T06:55:02.563Z,3.50
2019-01-18T06:56:09.303Z,3.90
2019-01-18T06:57:16.389Z,4.37
2019-01-18T06:58:23.181Z,3.65
2019-01-18T06:59:29.855Z,4.80
2019-01-18T07:00:36.991Z,4.08
2019-01-18T07:01:44.065Z,3.87
2019-01-18T07:02:51.204Z,3.60
2019-01-18T07:03:58.959Z,3.45
2019-01-18T07:05:06.837Z,4.40
2019-01-18T07:06:13.550Z,3.72
2019-01-18T07:07:20.229Z,4.12
2019-01-18T07:08:27.602Z,3.95
2019-01-18T07:09:34.335Z,3.77
2019-01-18T07:10:40.991Z,3.47
2019-01-18T07:11:47.716Z,3.83
2019-01-18T07:12:54.801Z,4.28
2019-01-18T07:14:01.521Z,4.30
2019-01-18T07:15:11.018Z,3.90
2019-01-18T07:16:18.089Z,3.70
2019-01-18T07:17:24.810Z,4.50
2019-01-18T07:18:31.998Z,4.62
2019-01-18T07:19:39.032Z,4.78
2019-01-18T07:20:45.730Z,4.80
2019-01-18T07:21:52.390Z,4.17
2019-01-18T07:22:59.626Z,4.42
2019-01-18T07:24:06.451Z,4.37
2019-01-18T07:25:17.458Z,4.47
2019-01-18T07:26:24.154Z,5.78
2019-01-18T07:27:31.186Z,4.50
2019-01-18T07:28:38.186Z,4.00
2019-01-18T07:29:45.096Z,5.70
2019-01-18T07:30:51.785Z,4.95
2019-01-18T07:31:58.494Z,4.15
2019-01-18T07:33:07.183Z,4.33
2019-01-18T07:34:15.660Z,3.62
2019-01-18T07:35:22.422Z,5.72
2019-01-18T07:36:29.516Z,3.85
2019-01-18T07:37:36.228Z,4.22
2019-01-18T07:38:43.100Z,4.47
2019-01-18T07:39:49.827Z,4.42
2019-01-18T07:40:56.869Z,4.45
2019-01-18T07:42:03.550Z,4.50
2019-01-18T07:43:10.256Z,4.70
2019-01-18T07:44:17.003Z,4.85
2019-01-18T07:45:27.097Z,3.87
2019-01-18T07:46:33.875Z,4.47
2019-01-18T07:47:40.583Z,4.67
2019-01-18T07:48:47.326Z,5.55
2019-01-18T07:49:54.019Z,5.47
2019-01-18T07:51:00.707Z,4.40
2019-01-18T07:52:08.372Z,5.10
2019-01-18T07:53:16.372Z,6.42
2019-01-18T07:54:23.517Z,4.83
2019-01-18T07:55:30.281Z,4.67
2019-01-18T07:56:37.460Z,4.55
2019-01-18T07:57:44.155Z,4.60
2019-01-18T07:58:50.973Z,4.60
2019-01-18T07:59:57.727Z,5.12
2019-01-18T08:01:04.695Z,5.78
2019-01-18T08:02:11.732Z,5.10
2019-01-18T08:03:19.182Z,5.17
2019-01-18T08:04:26.297Z,5.35
2019-01-18T08:05:34.094Z,4.25
2019-01-18T08:06:41.274Z,4.87
2019-01-18T08:07:48.048Z,4.40
2019-01-18T08:08:54.707Z,5.22
2019-01-18T08:10:01.376Z,4.75
2019-01-18T08:11:08.182Z,5.15
2019-01-18T08:12:14.912Z,5.05
2019-01-18T08:13:22.408Z,5.53
2019-01-18T08:14:29.164Z,5.58
2019-01-18T08:15:35.856Z,4.60
2019-01-18T08:16:43.619Z,4.90
2019-01-18T08:17:50.688Z,4.70
2019-01-18T08:18:57.423Z,5.75
2019-01-18T08:20:05.204Z,4.95
2019-01-18T08:21:12.590Z,4.83
2019-01-18T08:22:19.667Z,5.15
2019-01-18T08:23:26.392Z,4.97
2019-01-18T08:24:33.902Z,5.10
2019-01-18T08:25:41.336Z,4.53
2019-01-18T08:26:48.279Z,5.20
2019-01-18T08:27:55.199Z,4.45
2019-01-18T08:29:01.914Z,5.12
2019-01-18T08:30:13.418Z,5.42
2019-01-18T08:31:21.098Z,5.12
2019-01-18T08:32:28.690Z,5.42
2019-01-18T08:33:35.352Z,4.87
2019-01-18T08:34:42.918Z,5.05
2019-01-18T08:35:49.702Z,5.08
2019-01-18T08:36:56.802Z,4.33
2019-01-18T08:38:03.897Z,4.47
2019-01-18T08:39:11.070Z,5.37
2019-01-18T08:40:42.032Z,4.97
2019-01-18T08:41:48.793Z,4.50
2019-01-18T08:42:56.233Z,4.00
2019-01-18T08:44:03.330Z,4.40
2019-01-18T08:45:14.150Z,4.20
2019-01-18T08:46:22.328Z,3.92
2019-01-18T08:47:29.062Z,4.00
2019-01-18T08:48:36.171Z,3.95
2019-01-18T08:49:42.861Z,4.85
2019-01-18T08:50:49.566Z,4.70
2019-01-18T08:51:56.272Z,4.03
2019-01-18T08:53:03.082Z,3.70
2019-01-18T08:54:09.862Z,3.92
2019-01-18T08:55:16.562Z,3.85
2019-01-18T08:56:23.314Z,4.17
2019-01-18T08:57:30.296Z,4.08
2019-01-18T08:58:37.623Z,3.90
2019-01-18T08:59:44.342Z,4.05
2019-01-18T09:00:51.061Z,3.65
2019-01-18T09:01:57.764Z,4.20
2019-01-18T09:03:05.896Z,4.60
2019-01-18T09:04:12.566Z,3.42
2019-01-18T09:05:22.752Z,4.10
2019-01-18T09:06:29.575Z,3.98
2019-01-18T09:07:36.764Z,3.58
2019-01-18T09:08:43.845Z,3.70
2019-01-18T09:09:50.936Z,3.50
2019-01-18T09:10:57.992Z,3.42
2019-01-18T09:12:06.477Z,4.37
2019-01-18T09:13:13.257Z,2.95
2019-01-18T09:14:23.865Z,4.08
2019-01-18T09:15:31.246Z,3.65
2019-01-18T09:16:38.204Z,4.17
2019-01-18T09:17:45.179Z,4.10
2019-01-18T09:18:51.912Z,3.77
2019-01-18T09:19:58.862Z,4.17
2019-01-18T09:21:05.552Z,4.78
2019-01-18T09:22:12.254Z,4.70
2019-01-18T09:23:19.060Z,4.37
2019-01-18T09:24:26.329Z,3.85
2019-01-18T09:25:34.005Z,3.83
2019-01-18T09:26:41.052Z,4.35
2019-01-18T09:27:48.304Z,4.05
2019-01-18T09:28:55.326Z,3.30
2019-01-18T09:30:02.118Z,3.33
2019-01-18T09:31:09.336Z,3.92
2019-01-18T09:32:16.375Z,2.92
2019-01-18T09:33:23.220Z,3.62
2019-01-18T09:34:30.226Z,3.33
2019-01-18T09:35:38.510Z,3.62
2019-01-18T09:36:45.183Z,3.67
2019-01-18T09:37:52.250Z,3.33
2019-01-18T09:38:58.973Z,3.95
2019-01-18T09:40:08.578Z,3.10
2019-01-18T09:41:17.065Z,2.85
2019-01-18T09:42:23.787Z,3.60
2019-01-18T09:43:30.790Z,4.20
2019-01-18T09:44:37.486Z,2.92
2019-01-18T09:45:44.144Z,3.20
2019-01-18T09:46:50.825Z,3.17
2019-01-18T09:47:58.076Z,3.35
2019-01-18T09:49:04.998Z,3.77
2019-01-18T09:50:16.344Z,4.37
2019-01-18T09:51:23.453Z,3.42
2019-01-18T09:52:30.263Z,3.17
2019-01-18T09:53:36.991Z,3.67
2019-01-18T09:54:44.118Z,3.00
2019-01-18T09:55:51.584Z,2.85
2019-01-18T09:56:59.105Z,3.40
2019-01-18T09:58:06.546Z,3.25
2019-01-18T09:59:13.338Z,3.10
2019-01-18T10:00:27.042Z,3.42
2019-01-18T10:01:34.321Z,3.45
2019-01-18T10:02:41.029Z,3.37
2019-01-18T10:03:47.792Z,2.80
2019-01-18T10:04:54.480Z,3.75
2019-01-18T10:06:01.247Z,3.50
2019-01-18T10:07:07.940Z,3.83
2019-01-18T10:08:16.542Z,3.33
2019-01-18T10:09:23.263Z,3.50
2019-01-18T10:10:29.961Z,3.98
2019-01-18T10:11:37.092Z,4.05
2019-01-18T10:12:44.493Z,3.95
2019-01-18T10:13:51.382Z,3.85
2019-01-18T10:14:58.131Z,3.55
2019-01-18T10:16:04.813Z,3.65
2019-01-18T10:17:11.718Z,3.45
2019-01-18T10:18:18.878Z,3.30
2019-01-18T10:19:25.860Z,4.22
2019-01-18T10:20:32.911Z,3.40
2019-01-18T10:21:40.303Z,3.40
2019-01-18T10:22:47.855Z,3.60
2019-01-18T10:23:55.110Z,3.55
2019-01-18T10:25:01.794Z,2.95
2019-01-18T10:26:08.559Z,3.58
2019-01-18T10:27:15.508Z,2.92
2019-01-18T10:28:22.767Z,3.10
2019-01-18T10:29:29.844Z,3.12
2019-01-18T10:30:36.582Z,3.72
2019-01-18T10:31:43.591Z,3.83
2019-01-18T10:32:50.407Z,2.92
2019-01-18T10:33:57.499Z,3.80
2019-01-18T10:35:04.865Z,3.45
2019-01-18T10:36:11.766Z,2.87
2019-01-18T10:37:18.657Z,3.92
2019-01-18T10:38:25.955Z,3.62
2019-01-18T10:39:32.706Z,3.35
2019-01-18T10:40:40.120Z,3.30
2019-01-18T10:41:47.230Z,3.52
2019-01-18T10:42:55.610Z,3.02
2019-01-18T10:44:06.096Z,3.33
2019-01-18T10:45:12.246Z,3.40
2019-01-18T10:46:19.019Z,3.37
2019-01-18T10:47:25.687Z,3.50
2019-01-18T10:48:32.729Z,3.00
2019-01-18T10:49:39.468Z,3.80
2019-01-18T10:50:46.938Z,3.45
2019-01-18T10:51:53.645Z,3.58
2019-01-18T10:53:00.501Z,3.25
2019-01-18T10:54:07.186Z,2.95
2019-01-18T10:55:14.339Z,3.25
2019-01-18T10:56:21.144Z,3.10
2019-01-18T10:57:27.982Z,2.33
2019-01-18T10:58:34.967Z,3.37
2019-01-18T10:59:41.753Z,3.15
2019-01-18T11:00:48.449Z,3.37
2019-01-18T11:02:00.766Z,3.60
2019-01-18T11:03:03.693Z,3.10
2019-01-18T11:04:10.430Z,2.92
2019-01-18T11:05:18.649Z,3.30
2019-01-18T11:06:25.504Z,3.02
2019-01-18T11:07:32.451Z,3.05
2019-01-18T11:08:39.220Z,3.40
2019-01-18T11:09:46.187Z,3.37
2019-01-18T11:10:54.793Z,3.52
2019-01-18T11:12:01.514Z,3.55
2019-01-18T11:13:10.321Z,2.90
2019-01-18T11:14:18.156Z,2.67
2019-01-18T11:15:28.670Z,3.02
2019-01-18T11:16:35.422Z,2.95
2019-01-18T11:17:42.539Z,3.05
2019-01-18T11:18:49.601Z,3.10
2019-01-18T11:19:56.350Z,3.25
2019-01-18T11:21:19.369Z,3.80
2019-01-18T11:22:26.072Z,3.50
2019-01-18T11:23:32.792Z,2.87
2019-01-18T11:24:39.684Z,3.45
2019-01-18T11:25:46.448Z,4.00
2019-01-18T11:26:53.568Z,3.05
2019-01-18T11:28:00.299Z,4.40
2019-01-18T11:29:09.331Z,3.02
2019-01-18T11:30:17.277Z,2.42
2019-01-18T11:31:23.939Z,3.65
2019-01-18T11:32:30.627Z,2.92
2019-01-18T11:33:37.579Z,3.17
2019-01-18T11:34:45.041Z,2.58
2019-01-18T11:35:52.027Z,2.95
2019-01-18T11:36:58.747Z,3.42
2019-01-18T11:38:05.825Z,3.50
2019-01-18T11:39:13.265Z,3.00
2019-01-18T11:40:22.413Z,3.37
2019-01-18T11:41:29.131Z,3.65
2019-01-18T11:42:35.817Z,3.12
2019-01-18T11:43:42.910Z,3.40
2019-01-18T11:44:49.635Z,2.87
2019-01-18T11:45:56.899Z,3.20
2019-01-18T11:47:04.582Z,2.90
2019-01-18T11:48:11.527Z,2.95
2019-01-18T11:49:18.612Z,3.10
2019-01-18T11:50:26.928Z,2.80
2019-01-18T11:51:33.589Z,2.85
2019-01-18T11:52:40.472Z,3.12
2019-01-18T11:53:47.568Z,2.87
2019-01-18T11:54:54.673Z,3.05
2019-01-18T11:56:01.712Z,2.75
2019-01-18T11:57:08.920Z,3.60
2019-01-18T11:58:15.667Z,3.00
2019-01-18T11:59:22.426Z,2.58
2019-01-18T12:00:29.603Z,2.60
2019-01-18T12:01:36.440Z,2.58
2019-01-18T12:02:43.137Z,2.50
2019-01-18T12:03:50.206Z,2.80
2019-01-18T12:04:56.883Z,2.45
2019-01-18T12:06:03.560Z,2.72
2019-01-18T12:07:10.355Z,3.37
2019-01-18T12:08:17.400Z,2.77
2019-01-18T12:09:24.167Z,3.10
2019-01-18T12:10:32.917Z,2.75
2019-01-18T12:11:40.001Z,3.35
2019-01-18T12:12:46.901Z,4.10
2019-01-18T12:13:53.954Z,3.25
2019-01-18T12:15:01.072Z,2.98
2019-01-18T12:16:07.827Z,3.62
2019-01-18T12:17:14.851Z,3.12
2019-01-18T12:18:21.939Z,2.95
2019-01-18T12:19:28.632Z,2.98
2019-01-18T12:20:38.030Z,2.85
2019-01-18T12:21:45.316Z,2.80
2019-01-18T12:22:52.386Z,3.60
2019-01-18T12:23:59.973Z,2.98
2019-01-18T12:25:08.536Z,3.15
2019-01-18T12:26:15.813Z,2.62
2019-01-18T12:27:22.892Z,3.55
2019-01-18T12:28:30.250Z,3.47
2019-01-18T12:29:37.346Z,3.30
2019-01-18T12:30:44.192Z,4.40
2019-01-18T12:31:51.933Z,2.87
2019-01-18T12:32:58.828Z,3.90
2019-01-18T12:34:05.820Z,3.43
2019-01-18T12:35:13.261Z,3.47
2019-01-18T12:36:20.002Z,2.80
2019-01-18T12:37:27.068Z,3.90
2019-01-18T12:38:33.904Z,4.10
2019-01-18T12:39:40.643Z,3.63
2019-01-18T12:40:47.984Z,3.47
2019-01-18T12:41:55.108Z,3.80
2019-01-18T12:43:02.063Z,3.62
2019-01-18T12:44:09.473Z,3.23
2019-01-18T12:45:19.749Z,3.50
2019-01-18T12:46:26.893Z,3.00
2019-01-18T12:47:33.780Z,2.22
2019-01-18T12:48:41.002Z,3.22
2019-01-18T12:49:47.769Z,2.58
2019-01-18T12:50:54.864Z,3.10
2019-01-18T12:52:02.411Z,2.65
2019-01-18T12:53:12.214Z,2.12
2019-01-18T12:54:19.282Z,2.70
2019-01-18T12:55:26.158Z,2.60
2019-01-18T12:56:32.871Z,2.60
2019-01-18T12:57:39.603Z,1.98
2019-01-18T12:58:46.965Z,2.10
2019-01-18T12:59:54.069Z,2.40
2019-01-18T13:01:00.869Z,1.90
2019-01-18T13:02:08.112Z,2.77
2019-01-18T13:03:14.859Z,2.45
2019-01-18T13:04:21.849Z,2.10
2019-01-18T13:05:36.189Z,2.33
2019-01-18T13:06:43.123Z,1.85
2019-01-18T13:07:50.295Z,2.00
2019-01-18T13:08:57.130Z,2.30
2019-01-18T13:10:04.145Z,2.40
2019-01-18T13:11:11.587Z,1.90
2019-01-18T13:12:18.411Z,2.55
2019-01-18T13:13:25.347Z,3.75
2019-01-18T13:14:32.559Z,2.30
2019-01-18T13:16:23.664Z,2.50
2019-01-18T13:17:30.464Z,2.17
2019-01-18T13:18:38.209Z,2.52
2019-01-18T13:19:44.981Z,1.80
2019-01-18T13:20:52.073Z,2.50
2019-01-18T13:21:59.118Z,2.17
2019-01-18T13:23:06.358Z,2.17
2019-01-18T13:24:13.998Z,2.00
2019-01-18T13:25:21.095Z,1.90
2019-01-18T13:26:29.313Z,1.85
2019-01-18T13:27:36.617Z,2.10
2019-01-18T13:28:43.800Z,2.10
2019-01-18T13:29:50.925Z,1.60
2019-01-18T13:30:57.715Z,2.27
2019-01-18T13:32:05.081Z,1.60
2019-01-18T13:33:12.203Z,1.53
2019-01-18T13:34:19.544Z,1.52
2019-01-18T13:35:27.624Z,1.97
2019-01-18T13:36:34.488Z,1.80
2019-01-18T13:37:43.550Z,1.47
2019-01-18T13:38:50.295Z,2.05
2019-01-18T13:39:57.441Z,1.70
2019-01-18T13:41:04.189Z,2.47
2019-01-18T13:42:11.439Z,3.75
2019-01-18T13:43:18.199Z,2.20
2019-01-18T13:44:25.060Z,1.70
2019-01-18T13:45:32.173Z,1.85
2019-01-18T13:46:39.487Z,2.00
2019-01-18T13:47:46.806Z,1.57
2019-01-18T13:48:54.122Z,2.72
2019-01-18T13:50:00.861Z,1.90
2019-01-18T13:51:07.503Z,1.67
2019-01-18T13:52:14.353Z,1.70
2019-01-18T13:53:21.468Z,1.50
2019-01-18T13:54:28.230Z,1.90
2019-01-18T13:55:35.440Z,2.10
2019-01-18T13:56:42.410Z,4.10
2019-01-18T13:57:49.298Z,1.32
2019-01-18T13:58:56.662Z,1.80
2019-01-18T14:00:04.625Z,1.80
2019-01-18T14:01:11.348Z,1.35
2019-01-18T14:02:18.339Z,1.80
2019-01-18T14:03:25.111Z,1.60
2019-01-18T14:04:31.796Z,1.67
2019-01-18T14:05:38.694Z,1.52
2019-01-18T14:06:45.769Z,1.40
2019-01-18T14:08:04.356Z,3.05
2019-01-18T14:09:11.989Z,1.27
2019-01-18T14:10:23.063Z,1.20
2019-01-18T14:11:30.326Z,2.07
2019-01-18T14:12:37.332Z,2.37
2019-01-18T14:13:44.351Z,2.60
2019-01-18T14:14:51.946Z,2.00
2019-01-18T14:15:59.100Z,2.13
2019-01-18T14:17:05.836Z,1.80
2019-01-18T14:18:12.507Z,1.47
2019-01-18T14:19:19.522Z,3.75
2019-01-18T14:20:26.536Z,2.30
2019-01-18T14:21:33.387Z,1.97
2019-01-18T14:22:40.436Z,2.05
2019-01-18T14:23:47.587Z,1.80
2019-01-18T14:24:54.271Z,1.50
2019-01-18T14:26:01.323Z,2.22
2019-01-18T14:27:08.578Z,2.00
2019-01-18T14:28:15.251Z,1.95
2019-01-18T14:29:22.003Z,2.40
2019-01-18T14:30:29.300Z,2.02
2019-01-18T14:31:36.086Z,1.60
2019-01-18T14:32:42.921Z,1.90
2019-01-18T14:33:49.629Z,2.13
2019-01-18T14:34:56.739Z,2.00
2019-01-18T14:36:03.414Z,2.25
2019-01-18T14:37:10.275Z,1.95
2019-01-18T14:38:17.536Z,2.00
2019-01-18T14:39:24.450Z,1.77
2019-01-18T14:40:31.166Z,1.87
2019-01-18T14:41:38.189Z,2.60
2019-01-18T14:42:45.234Z,1.82
2019-01-18T14:43:51.995Z,1.90
2019-01-18T14:44:58.798Z,1.70
2019-01-18T14:46:05.433Z,1.60
2019-01-18T14:47:12.501Z,2.27
2019-01-18T14:48:19.534Z,2.40
2019-01-18T14:49:26.228Z,1.40
2019-01-18T14:50:33.884Z,1.70
2019-01-18T14:51:40.599Z,1.67
2019-01-18T14:52:48.017Z,1.30
2019-01-18T14:53:54.729Z,2.00
2019-01-18T14:55:02.184Z,1.70
2019-01-18T14:56:09.477Z,2.00